Time;durP1;ratioP1;P1;durP2;ratioP2;P2;SDS_P1;SDS_P2;PMS_P1;PMS_P2;Temp;Humidity;BMP_temperature;BMP_pressure;BME280_temperature;BME280_humidity;BME280_pressure;Samples;Min_cycle;Max_cycle;Signal;HPM_P1;HPM_P2
2021/09/21 00:00:53;;;;;;;12.80;11.60;;;15.80;99.90;;;;;;6130471;23;20427;-91
2021/09/21 00:03:20;;;;;;;19.70;12.20;;;15.80;99.90;;;;;;6130912;23;20396;-91
2021/09/21 00:05:47;;;;;;;13.60;12.40;;;15.80;99.90;;;;;;6131907;23;20907;-90
2021/09/21 00:08:14;;;;;;;14.80;13.40;;;15.80;99.90;;;;;;6129644;23;20887;-91
2021/09/21 00:10:41;;;;;;;12.93;11.87;;;15.80;99.90;;;;;;6131413;23;20419;-91
2021/09/21 00:13:08;;;;;;;12.37;11.17;;;15.70;99.90;;;;;;6130787;23;20447;-90
2021/09/21 00:15:35;;;;;;;13.87;12.37;;;15.70;99.90;;;;;;6130393;23;20905;-90
2021/09/21 00:18:03;;;;;;;12.53;11.33;;;15.60;99.90;;;;;;6138906;23;20372;-91
2021/09/21 00:20:29;;;;;;;12.10;11.00;;;15.60;99.90;;;;;;6154815;23;20432;-91
2021/09/21 00:22:56;;;;;;;13.97;12.67;;;15.60;99.90;;;;;;6137169;23;20887;-91
2021/09/21 00:25:23;;;;;;;13.00;11.70;;;15.60;99.90;;;;;;6129894;23;20766;-91
2021/09/21 00:27:50;;;;;;;13.23;12.07;;;15.60;99.90;;;;;;6129695;23;20419;-91
2021/09/21 00:30:19;;;;;;;12.90;11.83;;;15.60;99.90;;;;;;6135773;23;20475;-91
2021/09/21 00:32:49;;;;;;;16.33;12.20;;;15.60;99.90;;;;;;6135194;23;20455;-93
2021/09/21 00:35:23;;;;;;;13.13;11.90;;;15.60;99.90;;;;;;6131624;23;20426;-92
2021/09/21 00:37:50;;;;;;;14.30;12.90;;;15.60;99.90;;;;;;6137960;23;20439;-92
2021/09/21 00:40:17;;;;;;;14.23;12.77;;;15.60;99.90;;;;;;6130963;23;20435;-93
2021/09/21 00:42:45;;;;;;;13.07;11.97;;;15.60;99.90;;;;;;6131476;23;21102;-92
2021/09/21 00:45:33;;;;;;;14.03;12.73;;;15.60;99.90;;;;;;6130185;23;20415;-93
2021/09/21 00:48:00;;;;;;;12.37;11.27;;;15.60;99.90;;;;;;6130214;23;20396;-92
2021/09/21 00:50:30;;;;;;;13.23;12.00;;;15.50;99.90;;;;;;6128709;23;20467;-93
2021/09/21 00:52:59;;;;;;;14.10;11.37;;;15.50;99.90;;;;;;6127492;23;20467;-92
2021/09/21 00:55:26;;;;;;;12.57;11.40;;;15.50;99.90;;;;;;6127894;23;20422;-93
2021/09/21 00:57:53;;;;;;;12.47;11.37;;;15.50;99.90;;;;;;6130467;23;20412;-93
2021/09/21 01:00:22;;;;;;;13.33;12.13;;;15.50;99.90;;;;;;6128922;23;20466;-92
2021/09/21 01:02:50;;;;;;;17.20;11.90;;;15.50;99.90;;;;;;6127710;23;20510;-92
2021/09/21 01:05:19;;;;;;;13.40;12.00;;;15.50;99.90;;;;;;6127653;23;20436;-92
2021/09/21 01:07:48;;;;;;;12.70;11.50;;;15.40;99.90;;;;;;6128339;23;20420;-92
2021/09/21 01:10:18;;;;;;;13.60;12.30;;;15.40;99.90;;;;;;6131547;23;20420;-92
2021/09/21 01:12:47;;;;;;;11.97;10.97;;;15.40;99.90;;;;;;6153296;23;20442;-94
2021/09/21 01:15:15;;;;;;;13.43;12.03;;;15.40;99.90;;;;;;6140352;23;20424;-92
2021/09/21 01:17:43;;;;;;;13.00;11.80;;;15.40;99.90;;;;;;6144517;23;20408;-93
2021/09/21 01:20:12;;;;;;;15.20;11.33;;;15.50;99.90;;;;;;6129204;23;20440;-93
2021/09/21 01:22:41;;;;;;;13.03;11.80;;;15.40;99.90;;;;;;6127135;23;20466;-92
2021/09/21 01:25:10;;;;;;;12.30;11.00;;;15.40;99.90;;;;;;6128981;23;20443;-93
2021/09/21 01:27:37;;;;;;;12.27;11.10;;;15.40;99.90;;;;;;6127668;23;20422;-93
2021/09/21 01:30:06;;;;;;;11.80;10.70;;;15.40;99.90;;;;;;6126773;23;20483;-92
2021/09/21 01:32:34;;;;;;;12.87;11.67;;;15.40;99.90;;;;;;6127963;23;20965;-92
2021/09/21 01:35:01;;;;;;;12.97;10.90;;;15.50;99.90;;;;;;6128288;23;20411;-93
2021/09/21 01:37:29;;;;;;;12.10;11.10;;;15.50;99.90;;;;;;6129669;23;20400;-92
2021/09/21 01:40:04;;;;;;;10.93;9.83;;;15.50;99.90;;;;;;6127743;23;20479;-93
2021/09/21 01:42:31;;;;;;;11.90;10.90;;;15.50;99.90;;;;;;6128096;23;20508;-92
2021/09/21 01:44:58;;;;;;;12.37;11.23;;;15.40;99.90;;;;;;6128029;23;20776;-93
2021/09/21 01:47:25;;;;;;;12.27;11.10;;;15.40;99.90;;;;;;6127922;23;20483;-92
2021/09/21 01:50:10;;;;;;;14.73;11.10;;;15.50;99.90;;;;;;6126911;23;20888;-93
2021/09/21 01:52:41;;;;;;;13.50;12.10;;;15.40;99.90;;;;;;6127410;23;20476;-93
2021/09/21 01:55:14;;;;;;;15.17;11.53;;;15.40;99.90;;;;;;6129146;23;20416;-93
2021/09/21 02:00:25;;;;;;;12.30;11.10;;;15.30;99.90;;;;;;6140561;23;20435;-92
2021/09/21 02:02:52;;;;;;;13.83;12.53;;;15.30;99.90;;;;;;6152497;23;20419;-93
2021/09/21 02:05:18;;;;;;;12.63;11.37;;;15.30;99.90;;;;;;6129450;23;20484;-93
2021/09/21 02:07:53;;;;;;;13.43;11.33;;;15.20;99.90;;;;;;6127365;23;20420;-94
2021/09/21 02:10:21;;;;;;;14.03;12.83;;;15.20;99.90;;;;;;6131562;23;20531;-93
2021/09/21 02:12:49;;;;;;;13.67;12.40;;;15.30;99.90;;;;;;6130464;23;20454;-93
2021/09/21 02:15:16;;;;;;;13.10;12.00;;;15.30;99.90;;;;;;6132691;23;20796;-93
2021/09/21 02:17:47;;;;;;;12.40;11.30;;;15.30;99.90;;;;;;6129760;23;20443;-93
2021/09/21 02:20:16;;;;;;;12.77;11.67;;;15.30;99.90;;;;;;6127751;23;20478;-93
2021/09/21 02:22:45;;;;;;;12.87;11.67;;;15.30;99.90;;;;;;6146679;23;20439;-92
2021/09/21 02:25:12;;;;;;;14.43;13.03;;;15.30;99.90;;;;;;6143222;23;20423;-92
2021/09/21 02:27:41;;;;;;;13.07;11.87;;;15.30;99.90;;;;;;6130913;23;20435;-93
2021/09/21 02:30:09;;;;;;;13.27;12.07;;;15.30;99.90;;;;;;6126675;23;20435;-93
2021/09/21 02:32:36;;;;;;;13.37;12.17;;;15.20;99.90;;;;;;6126755;23;20443;-93
2021/09/21 02:35:04;;;;;;;13.43;12.13;;;15.20;99.90;;;;;;6129258;23;20443;-93
2021/09/21 02:37:31;;;;;;;12.87;11.77;;;15.20;99.90;;;;;;6129896;23;20506;-93
2021/09/21 02:40:00;;;;;;;13.70;12.40;;;15.20;99.90;;;;;;6126500;23;20403;-93
2021/09/21 02:42:27;;;;;;;13.37;12.07;;;15.10;99.90;;;;;;6128630;23;20446;-93
2021/09/21 02:44:56;;;;;;;13.40;11.93;;;15.10;99.90;;;;;;6127429;23;20442;-93
2021/09/21 02:47:23;;;;;;;13.33;11.93;;;15.00;99.90;;;;;;6132575;23;20411;-94
2021/09/21 02:49:50;;;;;;;14.43;12.97;;;15.00;99.90;;;;;;6127202;23;20415;-93
2021/09/21 02:52:17;;;;;;;13.90;12.47;;;15.00;99.90;;;;;;6126647;23;20478;-94
2021/09/21 02:54:44;;;;;;;14.40;13.00;;;15.00;99.90;;;;;;6126454;23;20452;-93
2021/09/21 02:57:11;;;;;;;14.53;13.23;;;15.00;99.90;;;;;;6132196;23;20910;-92
2021/09/21 02:59:40;;;;;;;14.10;12.80;;;15.00;99.90;;;;;;6146596;23;20640;-93
2021/09/21 03:05:25;;;;;;;13.23;11.83;;;15.00;99.90;;;;;;6135617;23;20712;-93
2021/09/21 03:07:56;;;;;;;14.50;13.10;;;15.00;99.90;;;;;;6127597;23;20438;-93
2021/09/21 03:10:29;;;;;;;14.97;12.07;;;15.00;99.90;;;;;;6138339;23;20424;-91
2021/09/21 03:18:28;;;;;;;15.10;13.23;;;15.00;99.90;;;;;;6129067;23;20378;-92
2021/09/21 03:20:57;;;;;;;14.20;13.00;;;15.00;99.90;;;;;;6128348;23;20416;-92
2021/09/21 03:23:24;;;;;;;14.40;13.00;;;15.00;99.90;;;;;;6128867;23;20991;-92
2021/09/21 03:25:53;;;;;;;12.90;11.60;;;14.90;99.90;;;;;;6132218;23;20475;-92
2021/09/21 03:28:20;;;;;;;14.17;12.87;;;14.90;99.90;;;;;;6140759;23;20428;-92
2021/09/21 03:30:48;;;;;;;15.00;13.50;;;14.90;99.90;;;;;;6128962;23;20905;-92
2021/09/21 03:33:15;;;;;;;14.13;12.93;;;14.90;99.90;;;;;;6129443;23;20762;-93
2021/09/21 03:35:42;;;;;;;13.20;12.00;;;14.80;99.90;;;;;;6129810;23;20451;-92
2021/09/21 03:38:11;;;;;;;16.83;13.10;;;14.90;99.90;;;;;;6131322;23;20429;-93
2021/09/21 03:40:39;;;;;;;14.20;12.80;;;14.90;99.90;;;;;;6128191;23;20431;-92
2021/09/21 03:43:06;;;;;;;12.83;11.83;;;14.80;99.90;;;;;;6140572;23;20439;-92
2021/09/21 03:45:35;;;;;;;14.00;12.70;;;14.80;99.90;;;;;;6131303;23;20415;-92
2021/09/21 03:48:02;;;;;;;13.97;12.77;;;14.80;99.90;;;;;;6135732;23;20447;-92
2021/09/21 03:50:29;;;;;;;13.47;12.07;;;14.80;99.90;;;;;;6153728;23;20418;-93
2021/09/21 03:52:56;;;;;;;13.60;12.40;;;14.70;99.90;;;;;;6136738;23;20462;-92
2021/09/21 03:55:26;;;;;;;13.67;12.40;;;14.70;99.90;;;;;;6138966;23;20474;-92
2021/09/21 03:57:54;;;;;;;14.30;12.90;;;14.70;99.90;;;;;;6134036;23;20501;-92
2021/09/21 04:00:22;;;;;;;14.33;13.07;;;14.70;99.90;;;;;;6137094;23;20418;-93
2021/09/21 04:02:49;;;;;;;14.60;13.23;;;14.70;99.90;;;;;;6135005;23;20451;-93
2021/09/21 04:05:16;;;;;;;12.33;11.10;;;14.60;99.90;;;;;;6142624;23;20429;-94
2021/09/21 04:07:43;;;;;;;14.20;12.80;;;14.60;99.90;;;;;;6155629;23;20402;-93
2021/09/21 04:10:11;;;;;;;14.40;13.03;;;14.60;99.90;;;;;;6154427;23;20399;-93
2021/09/21 04:15:32;;;;;;;14.83;13.40;;;14.60;99.90;;;;;;6137494;23;20395;-94
2021/09/21 04:18:02;;;;;;;14.80;13.30;;;14.60;99.90;;;;;;6133211;23;20801;-94
2021/09/21 04:20:31;;;;;;;15.27;13.87;;;14.60;99.90;;;;;;6131583;23;20422;-94
2021/09/21 04:22:58;;;;;;;13.10;11.90;;;14.50;99.90;;;;;;6135767;23;20941;-93
2021/09/21 04:25:27;;;;;;;14.57;11.90;;;14.60;99.90;;;;;;6131900;23;20752;-92
2021/09/21 04:28:19;;;;;;;16.13;13.70;;;14.50;99.90;;;;;;6135064;23;20809;-92
2021/09/21 04:33:36;;;;;;;14.00;12.60;;;14.30;99.90;;;;;;6144109;23;20932;-94
2021/09/21 04:36:04;;;;;;;13.80;12.50;;;14.30;99.90;;;;;;6143496;23;20462;-92
2021/09/21 04:41:07;;;;;;;15.27;13.77;;;14.30;99.90;;;;;;6121581;23;20454;-94
2021/09/21 04:46:12;;;;;;;13.27;11.97;;;14.20;99.90;;;;;;6123428;23;20508;-93
2021/09/21 04:48:51;;;;;;;14.60;13.30;;;14.20;99.90;;;;;;6110255;23;20420;-93
2021/09/21 04:51:18;;;;;;;12.37;11.20;;;14.20;99.90;;;;;;6107202;23;20439;-93
2021/09/21 04:53:46;;;;;;;13.30;12.00;;;14.20;99.90;;;;;;6134764;23;20477;-93
2021/09/21 04:56:13;;;;;;;13.27;11.93;;;14.20;99.90;;;;;;6131769;23;20418;-93
2021/09/21 04:58:40;;;;;;;14.17;12.77;;;14.20;99.90;;;;;;6137818;23;20423;-92
2021/09/21 05:01:08;;;;;;;11.60;10.50;;;14.20;99.90;;;;;;6134978;23;20489;-93
2021/09/21 05:03:38;;;;;;;13.00;11.90;;;14.20;99.90;;;;;;6144516;23;20650;-93
2021/09/21 05:08:47;;;;;;;13.70;12.50;;;14.20;99.90;;;;;;6135278;23;20399;-93
2021/09/21 05:11:15;;;;;;;14.00;12.80;;;14.20;99.90;;;;;;6136709;23;20438;-93
2021/09/21 05:13:46;;;;;;;13.70;12.40;;;14.20;99.90;;;;;;6140198;23;20426;-93
2021/09/21 05:16:17;;;;;;;13.57;12.37;;;14.20;99.90;;;;;;6139827;23;20414;-93
2021/09/21 05:18:46;;;;;;;13.30;12.07;;;14.20;99.90;;;;;;6129395;23;20534;-93
2021/09/21 05:21:45;;;;;;;12.40;11.20;;;14.20;99.90;;;;;;6135069;23;20435;-93
2021/09/21 05:24:16;;;;;;;13.47;12.20;;;14.20;99.90;;;;;;6138010;23;20415;-93
2021/09/21 05:27:16;;;;;;;13.77;12.20;;;14.20;99.90;;;;;;6130385;23;20422;-93
2021/09/21 05:35:22;;;;;;;12.50;11.30;;;14.30;99.90;;;;;;6100384;23;20456;-91
2021/09/21 05:37:57;;;;;;;28.63;13.00;;;14.30;99.90;;;;;;6152003;23;20413;-93
2021/09/21 05:40:45;;;;;;;15.10;11.90;;;14.30;99.90;;;;;;6147656;23;20410;-93
2021/09/21 05:43:19;;;;;;;13.13;12.03;;;14.30;99.90;;;;;;6147241;23;20422;-92
2021/09/21 05:45:49;;;;;;;13.00;11.80;;;14.30;99.90;;;;;;6137191;23;20411;-90
2021/09/21 05:48:36;;;;;;;12.40;11.30;;;14.30;99.90;;;;;;6133320;23;20751;-90
2021/09/21 05:51:09;;;;;;;12.20;11.03;;;14.40;99.90;;;;;;6079373;23;20452;-90
2021/09/21 05:53:36;;;;;;;11.83;10.80;;;14.40;99.90;;;;;;6134479;23;20867;-91
2021/09/21 05:56:05;;;;;;;14.60;11.90;;;14.40;99.90;;;;;;6128128;23;20417;-91
2021/09/21 05:58:32;;;;;;;13.50;12.20;;;14.40;99.90;;;;;;6125707;23;20400;-91
2021/09/21 06:00:59;;;;;;;11.80;10.80;;;14.40;99.90;;;;;;6127427;23;20443;-90
2021/09/21 06:03:26;;;;;;;13.03;11.73;;;14.50;99.90;;;;;;6129471;23;20795;-90
2021/09/21 06:05:53;;;;;;;12.20;11.20;;;14.50;99.90;;;;;;6147205;23;20449;-91
2021/09/21 06:08:21;;;;;;;12.27;11.17;;;14.50;99.90;;;;;;6129255;23;20745;-92
2021/09/21 06:10:48;;;;;;;12.40;11.30;;;14.60;99.90;;;;;;6128339;23;20425;-92
2021/09/21 06:13:15;;;;;;;13.43;12.23;;;14.60;99.90;;;;;;6129409;23;20433;-91
2021/09/21 06:15:42;;;;;;;12.30;11.10;;;14.60;99.90;;;;;;6138579;23;20445;-91
2021/09/21 06:18:08;;;;;;;13.20;12.00;;;14.60;99.90;;;;;;6127771;23;20956;-92
2021/09/21 06:20:36;;;;;;;13.40;11.37;;;14.50;99.90;;;;;;6128270;23;20507;-91
2021/09/21 06:23:03;;;;;;;12.90;11.77;;;14.50;99.90;;;;;;6127562;23;20502;-92
2021/09/21 06:25:34;;;;;;;12.80;11.70;;;14.50;99.90;;;;;;6135992;23;20462;-89
2021/09/21 06:28:04;;;;;;;13.67;12.40;;;14.40;99.90;;;;;;6153004;23;20453;-88
2021/09/21 06:30:31;;;;;;;13.37;11.93;;;14.40;99.90;;;;;;6145128;23;20388;-90
2021/09/21 06:33:01;;;;;;;12.97;11.80;;;14.40;99.90;;;;;;6130259;23;20462;-91
2021/09/21 06:35:28;;;;;;;12.17;10.80;;;14.40;99.90;;;;;;6130719;23;20474;-88
2021/09/21 06:37:57;;;;;;;16.83;12.07;;;14.40;99.90;;;;;;6130865;23;20434;-89
2021/09/21 06:40:23;;;;;;;13.10;11.30;;;14.40;99.90;;;;;;6131538;23;20478;-89
2021/09/21 06:42:52;;;;;;;14.33;12.87;;;14.50;99.90;;;;;;6138534;23;20504;-89
2021/09/21 06:45:19;;;;;;;12.03;10.50;;;14.50;99.90;;;;;;6148758;23;20407;-89
2021/09/21 06:47:46;;;;;;;12.60;11.30;;;14.50;99.90;;;;;;6132760;23;20410;-88
2021/09/21 06:50:14;;;;;;;13.37;12.07;;;14.60;99.90;;;;;;6134780;23;20418;-89
2021/09/21 06:52:42;;;;;;;14.73;12.07;;;14.70;99.90;;;;;;6140823;23;20438;-89
2021/09/21 06:55:12;;;;;;;14.73;13.43;;;14.80;99.90;;;;;;6142166;23;20432;-89
2021/09/21 06:57:40;;;;;;;14.47;13.13;;;14.70;99.90;;;;;;6152071;23;20410;-90
2021/09/21 07:00:10;;;;;;;11.60;10.43;;;14.80;99.90;;;;;;6141116;23;20925;-90
2021/09/21 07:02:38;;;;;;;13.07;11.87;;;14.80;99.90;;;;;;6133726;23;20438;-90
2021/09/21 07:05:05;;;;;;;12.97;11.77;;;14.80;99.90;;;;;;6132760;23;20448;-91
2021/09/21 07:07:32;;;;;;;13.57;12.23;;;14.90;99.90;;;;;;6131583;23;20490;-90
2021/09/21 07:09:59;;;;;;;14.23;12.37;;;14.90;99.90;;;;;;6131226;23;20746;-89
2021/09/21 07:12:25;;;;;;;12.97;11.67;;;14.90;99.90;;;;;;6141137;23;20424;-90
2021/09/21 07:14:54;;;;;;;13.70;12.30;;;15.00;99.90;;;;;;6134687;23;20439;-89
2021/09/21 07:17:22;;;;;;;13.60;12.27;;;15.10;99.90;;;;;;6132155;23;20729;-90
2021/09/21 07:19:52;;;;;;;12.73;11.30;;;15.10;99.90;;;;;;6136568;23;20439;-90
2021/09/21 07:22:19;;;;;;;12.33;11.20;;;15.20;99.90;;;;;;6138666;23;20923;-90
2021/09/21 07:24:46;;;;;;;13.17;11.93;;;15.30;99.90;;;;;;6130070;23;20407;-90
2021/09/21 07:27:13;;;;;;;12.20;11.07;;;15.50;99.90;;;;;;6130868;23;20898;-89
2021/09/21 07:29:40;;;;;;;12.43;11.00;;;15.60;99.90;;;;;;6130058;23;20978;-90
2021/09/21 07:32:07;;;;;;;12.97;11.67;;;15.70;99.90;;;;;;6129163;23;20521;-90
2021/09/21 07:34:35;;;;;;;11.47;10.33;;;15.80;99.90;;;;;;6130287;23;20424;-90
2021/09/21 07:37:03;;;;;;;11.60;10.50;;;15.80;99.30;;;;;;6130314;23;20426;-90
2021/09/21 07:39:30;;;;;;;12.90;11.60;;;15.90;99.50;;;;;;6129468;23;20506;-90
2021/09/21 07:41:57;;;;;;;11.93;10.90;;;16.10;99.00;;;;;;6129337;23;20402;-89
2021/09/21 07:44:24;;;;;;;12.40;10.90;;;16.10;98.20;;;;;;6150444;23;20459;-90
2021/09/21 07:46:51;;;;;;;15.73;10.70;;;16.20;98.50;;;;;;6137369;23;20404;-90
2021/09/21 07:49:18;;;;;;;11.47;10.40;;;16.30;98.20;;;;;;6129287;23;20418;-90
2021/09/21 07:51:46;;;;;;;12.23;11.10;;;16.40;97.60;;;;;;6129843;23;20412;-90
2021/09/21 07:54:12;;;;;;;11.27;10.23;;;16.60;97.20;;;;;;6132436;23;20871;-89
2021/09/21 07:56:39;;;;;;;10.40;9.50;;;16.80;96.30;;;;;;6131447;23;20403;-90
2021/09/21 07:59:06;;;;;;;10.70;9.53;;;17.00;95.50;;;;;;6128342;23;20414;-90
2021/09/21 08:01:36;;;;;;;11.63;9.43;;;17.10;95.10;;;;;;6128882;23;20415;-90
2021/09/21 08:04:03;;;;;;;11.00;9.90;;;17.30;94.70;;;;;;6129080;23;20470;-90
2021/09/21 08:06:29;;;;;;;10.53;9.60;;;17.50;93.50;;;;;;6131729;23;20489;-82
2021/09/21 08:08:57;;;;;;;9.87;8.97;;;17.60;93.30;;;;;;6142453;23;20396;-83
2021/09/21 08:11:24;;;;;;;10.43;9.60;;;17.80;92.60;;;;;;6141684;23;20418;-82
2021/09/21 08:13:51;;;;;;;9.20;8.50;;;17.90;92.00;;;;;;6144839;23;20425;-82
2021/09/21 08:16:18;;;;;;;10.13;9.13;;;18.00;91.20;;;;;;6147753;23;20505;-83
2021/09/21 08:18:44;;;;;;;10.70;9.90;;;18.20;90.90;;;;;;6144512;23;20392;-83
2021/09/21 08:21:11;;;;;;;11.00;10.00;;;18.40;90.00;;;;;;6147843;23;20432;-83
2021/09/21 08:23:38;;;;;;;10.40;9.47;;;18.40;90.10;;;;;;6147920;23;20519;-83
2021/09/21 08:26:07;;;;;;;8.83;8.03;;;18.50;88.40;;;;;;6147752;23;20400;-83
2021/09/21 08:28:34;;;;;;;9.27;8.37;;;18.40;85.70;;;;;;6144924;23;20410;-83
2021/09/21 08:31:00;;;;;;;10.00;9.20;;;18.50;86.60;;;;;;6141335;23;20731;-83
2021/09/21 08:33:28;;;;;;;9.67;8.70;;;18.90;84.80;;;;;;6144573;23;20464;-83
2021/09/21 08:35:54;;;;;;;9.43;8.63;;;19.10;83.90;;;;;;6140548;23;20443;-83
2021/09/21 08:38:21;;;;;;;8.90;8.20;;;19.00;81.40;;;;;;6139336;23;20403;-84
2021/09/21 08:40:48;;;;;;;7.97;7.17;;;18.90;78.00;;;;;;6138538;23;20408;-82
2021/09/21 08:43:16;;;;;;;9.07;8.30;;;18.40;79.90;;;;;;6138367;23;20437;-84
2021/09/21 08:45:43;;;;;;;8.67;7.87;;;18.70;80.00;;;;;;6142118;23;20407;-83
2021/09/21 08:48:10;;;;;;;8.50;7.80;;;18.80;75.50;;;;;;6138153;23;20404;-83
2021/09/21 08:50:37;;;;;;;8.63;7.93;;;18.60;75.70;;;;;;6138513;23;20420;-83
2021/09/21 08:53:04;;;;;;;9.03;8.17;;;18.60;76.60;;;;;;6150497;23;20424;-82
2021/09/21 08:55:30;;;;;;;9.00;8.30;;;18.60;77.30;;;;;;6148548;23;20550;-83
2021/09/21 08:57:58;;;;;;;8.97;8.20;;;18.40;78.50;;;;;;6140998;23;20405;-83
2021/09/21 09:00:29;;;;;;;7.40;6.80;;;18.40;78.60;;;;;;6138657;23;20463;-83
2021/09/21 09:03:10;;;;;;;8.70;8.00;;;19.00;77.20;;;;;;6138122;23;20493;-83
2021/09/21 09:05:45;;;;;;;8.30;7.60;;;21.60;73.60;;;;;;6138070;23;20407;-84
2021/09/21 09:08:12;;;;;;;8.37;7.50;;;24.70;65.40;;;;;;6139076;23;20409;-84
2021/09/21 09:10:39;;;;;;;9.33;8.63;;;26.70;57.20;;;;;;6142215;23;20746;-83
2021/09/21 09:13:17;;;;;;;8.77;8.07;;;26.50;52.70;;;;;;6139702;23;20805;-83
2021/09/21 09:15:52;;;;;;;8.83;8.07;;;25.50;53.50;;;;;;6142202;23;20439;-82
2021/09/21 09:18:24;;;;;;;7.83;7.13;;;23.90;54.40;;;;;;6143119;23;20410;-82
2021/09/21 09:20:51;;;;;;;7.70;7.20;;;23.30;56.60;;;;;;6143018;23;20407;-82
2021/09/21 09:23:18;;;;;;;8.20;7.53;;;23.00;56.90;;;;;;6143538;23;20449;-82
2021/09/21 09:25:49;;;;;;;7.83;7.23;;;22.90;56.80;;;;;;6150871;23;20467;-88
2021/09/21 09:28:17;;;;;;;8.50;7.80;;;22.70;57.20;;;;;;6151815;23;20406;-89
2021/09/21 09:30:48;;;;;;;9.97;9.10;;;23.80;56.20;;;;;;6149217;23;20455;-89
2021/09/21 09:33:23;;;;;;;9.00;8.23;;;24.70;55.20;;;;;;6149741;23;20545;-88
2021/09/21 09:35:51;;;;;;;7.50;6.90;;;24.70;54.60;;;;;;6142901;23;20442;-88
2021/09/21 09:38:22;;;;;;;7.67;7.17;;;24.60;54.10;;;;;;6147684;23;20690;-89
2021/09/21 09:40:58;;;;;;;7.03;6.53;;;24.80;53.80;;;;;;6138148;23;20376;-89
2021/09/21 09:43:29;;;;;;;7.83;7.23;;;25.60;52.70;;;;;;6134948;23;20419;-90
2021/09/21 09:46:00;;;;;;;7.10;6.50;;;26.10;51.30;;;;;;6135749;23;20470;-90
2021/09/21 09:48:37;;;;;;;7.63;7.03;;;27.10;50.30;;;;;;6130818;23;20475;-90
2021/09/21 09:51:07;;;;;;;8.23;7.53;;;29.70;46.60;;;;;;6134836;23;20909;-90
2021/09/21 09:53:35;;;;;;;6.23;5.73;;;30.20;43.60;;;;;;6135834;23;20697;-89
2021/09/21 09:56:02;;;;;;;9.07;8.27;;;29.90;43.40;;;;;;6135300;23;20525;-89
2021/09/21 09:58:30;;;;;;;7.53;7.03;;;28.80;44.10;;;;;;6129458;23;20457;-90
2021/09/21 10:01:04;;;;;;;8.50;7.83;;;29.60;44.60;;;;;;6134011;23;20573;-89
2021/09/21 10:03:34;;;;;;;9.37;8.63;;;30.50;43.10;;;;;;6130002;23;20488;-90
2021/09/21 10:06:02;;;;;;;8.53;7.83;;;30.70;41.70;;;;;;6130731;23;20408;-90
2021/09/21 10:08:29;;;;;;;7.43;6.83;;;30.80;40.70;;;;;;6130081;23;20486;-90
2021/09/21 10:10:57;;;;;;;9.87;9.23;;;31.00;40.90;;;;;;6130038;23;20404;-90
2021/09/21 10:13:24;;;;;;;8.00;7.30;;;30.80;41.10;;;;;;6134398;23;20427;-90
2021/09/21 10:15:58;;;;;;;7.70;7.20;;;32.40;39.70;;;;;;6130782;23;20447;-91
2021/09/21 10:18:26;;;;;;;7.57;7.07;;;34.30;37.90;;;;;;6128775;23;20415;-91
2021/09/21 10:20:59;;;;;;;7.80;7.10;;;35.40;35.60;;;;;;6132754;23;20415;-90
2021/09/21 10:23:34;;;;;;;6.47;6.07;;;36.00;34.20;;;;;;6129468;23;20435;-90
2021/09/21 10:26:16;;;;;;;6.97;6.40;;;36.40;32.90;;;;;;6129953;23;20379;-88
2021/09/21 10:28:46;;;;;;;7.57;7.00;;;35.20;33.00;;;;;;6128963;23;20419;-91
2021/09/21 10:31:15;;;;;;;6.93;6.50;;;36.00;32.00;;;;;;6127552;23;20798;-91
2021/09/21 10:33:43;;;;;;;8.73;8.00;;;35.00;32.20;;;;;;6127514;23;20436;-88
2021/09/21 10:36:17;;;;;;;8.83;8.23;;;31.70;35.10;;;;;;6128916;23;20459;-89
2021/09/21 10:38:56;;;;;;;8.47;7.77;;;29.50;39.00;;;;;;6130695;23;20806;-90
2021/09/21 10:41:23;;;;;;;8.60;7.90;;;27.00;42.00;;;;;;6148631;23;20403;-89
2021/09/21 10:44:04;;;;;;;8.30;7.60;;;25.80;45.00;;;;;;6140880;23;20498;-90
2021/09/21 10:46:43;;;;;;;8.03;7.43;;;24.80;47.00;;;;;;6130195;23;20431;-90
2021/09/21 10:49:10;;;;;;;8.50;7.90;;;26.40;46.70;;;;;;6128993;23;20422;-90
2021/09/21 10:51:47;;;;;;;7.13;6.60;;;29.00;43.60;;;;;;6147312;23;20408;-90
2021/09/21 10:54:15;;;;;;;6.80;6.30;;;30.30;41.10;;;;;;6151564;23;20398;-90
2021/09/21 10:56:43;;;;;;;7.40;6.70;;;32.40;38.70;;;;;;6129190;23;20474;-91
2021/09/21 10:59:19;;;;;;;7.23;6.70;;;33.30;36.00;;;;;;6127849;23;20392;-90
2021/09/21 11:01:51;;;;;;;7.03;6.33;;;34.10;34.30;;;;;;6128027;23;20455;-90
2021/09/21 11:04:22;;;;;;;7.73;7.13;;;32.80;35.30;;;;;;6132756;23;20410;-89
2021/09/21 11:06:49;;;;;;;7.43;6.93;;;30.80;36.90;;;;;;6129311;23;20404;-90
2021/09/21 11:09:25;;;;;;;7.30;6.80;;;29.10;39.00;;;;;;6133819;23;20408;-89
2021/09/21 11:12:03;;;;;;;8.10;7.30;;;29.00;39.90;;;;;;6152117;23;20451;-90
2021/09/21 11:14:31;;;;;;;7.77;7.27;;;30.20;39.40;;;;;;6128697;23;20451;-90
2021/09/21 11:17:00;;;;;;;7.97;7.17;;;30.50;39.20;;;;;;6128416;23;20450;-90
2021/09/21 11:19:29;;;;;;;7.40;6.90;;;31.00;38.00;;;;;;6127079;23;20438;-90
2021/09/21 11:22:01;;;;;;;7.70;7.00;;;31.00;37.80;;;;;;6127214;23;20404;-90
2021/09/21 11:24:30;;;;;;;7.70;7.10;;;29.90;38.50;;;;;;6127854;23;20398;-90
2021/09/21 11:26:58;;;;;;;7.50;7.00;;;28.20;40.70;;;;;;6128959;23;20489;-90
2021/09/21 11:29:25;;;;;;;6.57;6.17;;;26.90;42.30;;;;;;6129897;23;20420;-90
2021/09/21 11:31:52;;;;;;;8.33;7.63;;;26.90;43.20;;;;;;6131763;23;20519;-91
2021/09/21 11:34:20;;;;;;;7.80;7.20;;;27.10;43.10;;;;;;6149039;23;20480;-89
2021/09/21 11:36:51;;;;;;;7.40;6.63;;;26.80;43.10;;;;;;6153494;23;20427;-90
2021/09/21 11:39:18;;;;;;;7.37;6.77;;;26.90;43.60;;;;;;6152496;23;20399;-90
2021/09/21 11:41:56;;;;;;;7.10;6.60;;;27.20;42.70;;;;;;6153233;23;20411;-89
2021/09/21 11:44:36;;;;;;;6.77;6.07;;;27.40;43.20;;;;;;6152952;23;20422;-90
2021/09/21 11:47:03;;;;;;;7.23;6.63;;;28.10;42.40;;;;;;6144827;23;20477;-91
2021/09/21 11:49:31;;;;;;;7.90;7.23;;;29.10;40.90;;;;;;6134480;23;20415;-91
2021/09/21 11:51:58;;;;;;;7.77;7.20;;;29.00;41.20;;;;;;6153833;23;20439;-90
2021/09/21 11:54:28;;;;;;;8.70;8.00;;;29.00;40.60;;;;;;6153158;23;20407;-90
2021/09/21 11:56:59;;;;;;;7.30;6.80;;;30.40;39.60;;;;;;6151349;23;20496;-90
2021/09/21 11:59:33;;;;;;;8.97;8.30;;;31.40;37.80;;;;;;6151872;23;20395;-91
2021/09/21 12:02:00;;;;;;;9.57;8.77;;;31.60;37.50;;;;;;6133403;23;20413;-90
2021/09/21 12:04:32;;;;;;;8.47;7.87;;;31.80;36.70;;;;;;6130464;23;20906;-90
2021/09/21 12:06:59;;;;;;;8.57;7.97;;;31.40;36.80;;;;;;6131345;23;20404;-90
2021/09/21 12:09:33;;;;;;;8.07;7.47;;;31.60;38.10;;;;;;6131346;23;20494;-90
2021/09/21 12:12:02;;;;;;;6.90;6.40;;;32.70;36.20;;;;;;6130353;23;20481;-91
2021/09/21 12:14:37;;;;;;;7.00;6.50;;;34.10;34.50;;;;;;6135937;23;20396;-91
2021/09/21 12:17:09;;;;;;;8.03;7.30;;;34.90;33.40;;;;;;6131612;23;20423;-91
2021/09/21 12:19:43;;;;;;;8.17;7.60;;;36.00;32.50;;;;;;6139664;23;20419;-89
2021/09/21 12:22:24;;;;;;;8.20;7.40;;;35.60;31.00;;;;;;6138807;23;20763;-90
2021/09/21 12:24:53;;;;;;;7.80;7.20;;;33.10;32.90;;;;;;6141567;23;20410;-88
2021/09/21 12:27:25;;;;;;;8.43;7.73;;;31.30;35.70;;;;;;6143165;23;20442;-89
2021/09/21 12:29:56;;;;;;;8.80;8.20;;;32.00;35.70;;;;;;6131130;23;20416;-89
2021/09/21 12:32:25;;;;;;;9.90;9.00;;;31.80;35.50;;;;;;6136239;23;20531;-88
2021/09/21 12:35:01;;;;;;;8.50;7.80;;;32.10;35.70;;;;;;6144524;23;20408;-88
2021/09/21 12:37:28;;;;;;;9.00;8.20;;;31.40;36.70;;;;;;6137860;23;20505;-88
2021/09/21 12:39:58;;;;;;;6.90;6.40;;;31.20;37.50;;;;;;6129632;23;20451;-89
2021/09/21 12:42:26;;;;;;;8.03;6.80;;;32.30;36.10;;;;;;6132846;23;20483;-90
2021/09/21 12:44:56;;;;;;;7.47;6.97;;;33.10;35.20;;;;;;6132332;23;20429;-89
2021/09/21 12:47:23;;;;;;;10.33;7.70;;;34.10;34.50;;;;;;6145678;23;20479;-90
2021/09/21 12:49:51;;;;;;;7.63;7.03;;;34.80;33.20;;;;;;6150799;23;20495;-90
2021/09/21 12:52:27;;;;;;;7.73;7.17;;;35.70;32.90;;;;;;6152731;23;20393;-91
2021/09/21 12:54:54;;;;;;;8.90;8.20;;;36.20;31.70;;;;;;6133011;23;20398;-91
2021/09/21 12:57:22;;;;;;;7.10;6.60;;;35.20;31.50;;;;;;6129139;23;20471;-90
2021/09/21 12:59:53;;;;;;;7.77;7.07;;;33.60;33.80;;;;;;6127073;23;20435;-90
2021/09/21 13:02:20;;;;;;;8.20;7.50;;;32.80;34.70;;;;;;6142363;23;20382;-88
2021/09/21 13:04:47;;;;;;;7.70;7.10;;;31.00;36.00;;;;;;6132899;23;20400;-90
2021/09/21 13:07:14;;;;;;;8.80;8.13;;;30.10;38.20;;;;;;6130096;23;20407;-91
2021/09/21 13:09:40;;;;;;;8.27;7.63;;;30.20;38.70;;;;;;6128325;23;20438;-90
2021/09/21 13:12:07;;;;;;;8.43;7.83;;;30.60;37.80;;;;;;6128173;23;20403;-89
2021/09/21 13:14:36;;;;;;;7.77;7.17;;;30.30;37.80;;;;;;6128562;23;20775;-89
2021/09/21 13:17:04;;;;;;;9.93;9.13;;;29.10;39.30;;;;;;6128838;23;20965;-90